Wards Creek, Texas
Current Conditions -  °F | °C
As of 9:53 PM on Friday 28 Nov 2014 (Local Time) from KTXK Reporting Station
Clear Clear  
Wind Chill: 53°   Ceiling: Unl
Heat Index: 53°   Visibility: 10mi
Dew Point: 47°   Wind: 9mph
Humidity: 80%   Direction: 180°S
Pressure: 30.05"   Gusts: NA
Location:  33.4874°N, 94.582°W
Report Text: KTXK 290353Z AUTO 18008KT 10SM CLR 12/08 A3005 RMK AO2 SLP176 T01170083
Loading
Personal Weather Stations






























Interactive Weather Map New forecast layout! Learn more

10-Day Weather Forecast

Advertisements
Track Severe Weather on mobile